sensor_id;sensor_type;location;lat;lon;timestamp;P1;durP1;ratioP1;P2;durP2;ratioP2
44120;SDS011;29783;52.504;13.478;2022-10-16T00:00:43;3.35;;;2.92;;
44120;SDS011;29783;52.504;13.478;2022-10-16T00:03:09;3.85;;;2.88;;
44120;SDS011;29783;52.504;13.478;2022-10-16T00:05:40;3.90;;;2.75;;
44120;SDS011;29783;52.504;13.478;2022-10-16T00:08:07;12.10;;;2.58;;
44120;SDS011;29783;52.504;13.478;2022-10-16T00:10:34;4.95;;;4.05;;
44120;SDS011;29783;52.504;13.478;2022-10-16T00:13:00;7.03;;;2.67;;
44120;SDS011;29783;52.504;13.478;2022-10-16T00:15:26;4.70;;;2.92;;
44120;SDS011;29783;52.504;13.478;2022-10-16T00:17:52;3.17;;;2.72;;
44120;SDS011;29783;52.504;13.478;2022-10-16T00:20:17;2.97;;;2.70;;
44120;SDS011;29783;52.504;13.478;2022-10-16T00:22:43;3.70;;;2.42;;
44120;SDS011;29783;52.504;13.478;2022-10-16T00:25:09;5.20;;;2.42;;
44120;SDS011;29783;52.504;13.478;2022-10-16T00:27:35;5.38;;;2.50;;
44120;SDS011;29783;52.504;13.478;2022-10-16T00:30:00;2.38;;;2.00;;
44120;SDS011;29783;52.504;13.478;2022-10-16T00:32:28;3.00;;;2.20;;
44120;SDS011;29783;52.504;13.478;2022-10-16T00:34:54;2.20;;;1.67;;
44120;SDS011;29783;52.504;13.478;2022-10-16T00:37:20;6.97;;;2.17;;
44120;SDS011;29783;52.504;13.478;2022-10-16T00:39:46;2.50;;;1.88;;
44120;SDS011;29783;52.504;13.478;2022-10-16T00:42:16;5.45;;;2.30;;
44120;SDS011;29783;52.504;13.478;2022-10-16T00:44:44;2.83;;;2.03;;
44120;SDS011;29783;52.504;13.478;2022-10-16T00:47:19;3.88;;;2.22;;
44120;SDS011;29783;52.504;13.478;2022-10-16T00:49:50;3.13;;;1.70;;
44120;SDS011;29783;52.504;13.478;2022-10-16T00:52:18;2.90;;;1.55;;
44120;SDS011;29783;52.504;13.478;2022-10-16T00:54:44;3.45;;;1.70;;
44120;SDS011;29783;52.504;13.478;2022-10-16T00:57:12;2.53;;;1.60;;
44120;SDS011;29783;52.504;13.478;2022-10-16T00:59:39;1.52;;;1.40;;
44120;SDS011;29783;52.504;13.478;2022-10-16T01:02:07;2.25;;;1.27;;
44120;SDS011;29783;52.504;13.478;2022-10-16T01:04:38;3.00;;;1.45;;
44120;SDS011;29783;52.504;13.478;2022-10-16T01:07:15;1.52;;;1.40;;
44120;SDS011;29783;52.504;13.478;2022-10-16T01:09:59;1.30;;;1.13;;
44120;SDS011;29783;52.504;13.478;2022-10-16T01:12:47;1.17;;;1.08;;
44120;SDS011;29783;52.504;13.478;2022-10-16T01:15:31;7.20;;;1.50;;
44120;SDS011;29783;52.504;13.478;2022-10-16T01:18:08;1.35;;;1.00;;
44120;SDS011;29783;52.504;13.478;2022-10-16T01:20:44;3.63;;;1.52;;
44120;SDS011;29783;52.504;13.478;2022-10-16T01:25:59;2.97;;;1.55;;
44120;SDS011;29783;52.504;13.478;2022-10-16T01:28:32;1.92;;;1.25;;
44120;SDS011;29783;52.504;13.478;2022-10-16T01:31:04;1.65;;;1.40;;
44120;SDS011;29783;52.504;13.478;2022-10-16T01:33:34;7.70;;;1.60;;
44120;SDS011;29783;52.504;13.478;2022-10-16T01:36:12;4.90;;;1.52;;
44120;SDS011;29783;52.504;13.478;2022-10-16T01:38:40;2.57;;;1.50;;
44120;SDS011;29783;52.504;13.478;2022-10-16T01:41:26;3.60;;;1.48;;
44120;SDS011;29783;52.504;13.478;2022-10-16T01:44:07;1.88;;;1.40;;
44120;SDS011;29783;52.504;13.478;2022-10-16T01:46:37;2.38;;;1.40;;
44120;SDS011;29783;52.504;13.478;2022-10-16T01:49:06;3.78;;;1.67;;
44120;SDS011;29783;52.504;13.478;2022-10-16T01:51:34;3.60;;;1.90;;
44120;SDS011;29783;52.504;13.478;2022-10-16T01:54:02;4.15;;;1.70;;
44120;SDS011;29783;52.504;13.478;2022-10-16T01:56:31;3.38;;;1.30;;
44120;SDS011;29783;52.504;13.478;2022-10-16T01:59:04;2.60;;;1.45;;
44120;SDS011;29783;52.504;13.478;2022-10-16T02:01:42;4.07;;;1.65;;
44120;SDS011;29783;52.504;13.478;2022-10-16T02:04:16;3.65;;;1.50;;
44120;SDS011;29783;52.504;13.478;2022-10-16T02:06:47;2.05;;;1.42;;
44120;SDS011;29783;52.504;13.478;2022-10-16T02:09:13;3.03;;;1.25;;
44120;SDS011;29783;52.504;13.478;2022-10-16T02:11:41;2.88;;;1.52;;
44120;SDS011;29783;52.504;13.478;2022-10-16T02:14:08;5.95;;;1.75;;
44120;SDS011;29783;52.504;13.478;2022-10-16T02:16:36;4.43;;;1.35;;
44120;SDS011;29783;52.504;13.478;2022-10-16T02:19:08;6.97;;;1.10;;
44120;SDS011;29783;52.504;13.478;2022-10-16T02:21:43;0.93;;;0.70;;
44120;SDS011;29783;52.504;13.478;2022-10-16T02:30:22;2.08;;;1.00;;
44120;SDS011;29783;52.504;13.478;2022-10-16T02:32:55;1.50;;;0.95;;
44120;SDS011;29783;52.504;13.478;2022-10-16T02:35:23;1.73;;;0.80;;
44120;SDS011;29783;52.504;13.478;2022-10-16T02:37:52;1.75;;;1.10;;
44120;SDS011;29783;52.504;13.478;2022-10-16T02:40:18;4.50;;;1.17;;
44120;SDS011;29783;52.504;13.478;2022-10-16T02:42:44;1.98;;;1.00;;
44120;SDS011;29783;52.504;13.478;2022-10-16T02:45:14;2.20;;;1.08;;
44120;SDS011;29783;52.504;13.478;2022-10-16T02:47:40;1.30;;;0.98;;
44120;SDS011;29783;52.504;13.478;2022-10-16T02:50:06;3.35;;;1.30;;
44120;SDS011;29783;52.504;13.478;2022-10-16T02:52:32;2.72;;;1.50;;
44120;SDS011;29783;52.504;13.478;2022-10-16T02:54:58;2.80;;;1.10;;
44120;SDS011;29783;52.504;13.478;2022-10-16T02:57:24;3.70;;;1.30;;
44120;SDS011;29783;52.504;13.478;2022-10-16T02:59:49;1.33;;;0.85;;
44120;SDS011;29783;52.504;13.478;2022-10-16T03:02:15;1.75;;;1.38;;
44120;SDS011;29783;52.504;13.478;2022-10-16T03:04:42;1.70;;;0.95;;
44120;SDS011;29783;52.504;13.478;2022-10-16T03:07:07;4.90;;;1.25;;
44120;SDS011;29783;52.504;13.478;2022-10-16T03:09:33;3.13;;;1.30;;
44120;SDS011;29783;52.504;13.478;2022-10-16T03:11:59;1.08;;;0.95;;
44120;SDS011;29783;52.504;13.478;2022-10-16T03:14:24;2.92;;;0.98;;
44120;SDS011;29783;52.504;13.478;2022-10-16T03:16:50;1.20;;;0.77;;
44120;SDS011;29783;52.504;13.478;2022-10-16T03:19:16;1.15;;;0.90;;
44120;SDS011;29783;52.504;13.478;2022-10-16T03:21:42;2.42;;;1.23;;
44120;SDS011;29783;52.504;13.478;2022-10-16T03:24:08;0.73;;;0.73;;
44120;SDS011;29783;52.504;13.478;2022-10-16T03:26:34;3.85;;;1.30;;
44120;SDS011;29783;52.504;13.478;2022-10-16T03:29:00;1.42;;;1.00;;
44120;SDS011;29783;52.504;13.478;2022-10-16T03:31:28;2.72;;;0.95;;
44120;SDS011;29783;52.504;13.478;2022-10-16T03:33:55;1.10;;;0.90;;
44120;SDS011;29783;52.504;13.478;2022-10-16T03:36:21;3.35;;;1.10;;
44120;SDS011;29783;52.504;13.478;2022-10-16T03:38:47;2.97;;;1.00;;
44120;SDS011;29783;52.504;13.478;2022-10-16T03:41:13;1.63;;;1.10;;
44120;SDS011;29783;52.504;13.478;2022-10-16T03:43:38;7.47;;;1.52;;
44120;SDS011;29783;52.504;13.478;2022-10-16T03:46:04;1.30;;;1.20;;
44120;SDS011;29783;52.504;13.478;2022-10-16T03:48:30;1.77;;;1.00;;
44120;SDS011;29783;52.504;13.478;2022-10-16T03:50:57;1.33;;;0.90;;
44120;SDS011;29783;52.504;13.478;2022-10-16T03:53:23;5.47;;;1.17;;
44120;SDS011;29783;52.504;13.478;2022-10-16T03:55:49;1.85;;;1.20;;
44120;SDS011;29783;52.504;13.478;2022-10-16T03:58:15;1.23;;;0.95;;
44120;SDS011;29783;52.504;13.478;2022-10-16T04:00:44;1.98;;;1.20;;
44120;SDS011;29783;52.504;13.478;2022-10-16T04:03:11;2.42;;;1.25;;
44120;SDS011;29783;52.504;13.478;2022-10-16T04:05:37;2.83;;;1.05;;
44120;SDS011;29783;52.504;13.478;2022-10-16T04:08:03;1.30;;;1.00;;
44120;SDS011;29783;52.504;13.478;2022-10-16T04:10:30;1.63;;;0.90;;
44120;SDS011;29783;52.504;13.478;2022-10-16T04:12:55;4.93;;;0.90;;
44120;SDS011;29783;52.504;13.478;2022-10-16T04:15:24;4.28;;;1.20;;
44120;SDS011;29783;52.504;13.478;2022-10-16T04:17:51;1.02;;;0.98;;
44120;SDS011;29783;52.504;13.478;2022-10-16T04:20:17;3.97;;;1.40;;
44120;SDS011;29783;52.504;13.478;2022-10-16T04:22:43;2.10;;;1.33;;
44120;SDS011;29783;52.504;13.478;2022-10-16T04:25:09;1.73;;;1.27;;
44120;SDS011;29783;52.504;13.478;2022-10-16T04:27:36;1.20;;;1.10;;
44120;SDS011;29783;52.504;13.478;2022-10-16T04:30:01;3.20;;;1.42;;
44120;SDS011;29783;52.504;13.478;2022-10-16T04:32:28;1.55;;;1.20;;
44120;SDS011;29783;52.504;13.478;2022-10-16T04:34:53;3.20;;;1.55;;
44120;SDS011;29783;52.504;13.478;2022-10-16T04:37:22;2.13;;;1.48;;
44120;SDS011;29783;52.504;13.478;2022-10-16T04:39:50;1.40;;;1.20;;
44120;SDS011;29783;52.504;13.478;2022-10-16T04:42:15;1.67;;;1.38;;
44120;SDS011;29783;52.504;13.478;2022-10-16T04:44:41;1.52;;;1.25;;
44120;SDS011;29783;52.504;13.478;2022-10-16T04:47:07;1.85;;;1.30;;
44120;SDS011;29783;52.504;13.478;2022-10-16T04:49:33;2.17;;;1.50;;
44120;SDS011;29783;52.504;13.478;2022-10-16T04:51:58;2.20;;;1.38;;
44120;SDS011;29783;52.504;13.478;2022-10-16T04:54:24;2.45;;;1.40;;
44120;SDS011;29783;52.504;13.478;2022-10-16T04:56:50;2.50;;;1.60;;
44120;SDS011;29783;52.504;13.478;2022-10-16T04:59:17;5.00;;;1.80;;
44120;SDS011;29783;52.504;13.478;2022-10-16T05:01:44;2.53;;;1.63;;
44120;SDS011;29783;52.504;13.478;2022-10-16T05:04:10;1.92;;;1.40;;
44120;SDS011;29783;52.504;13.478;2022-10-16T05:06:36;2.60;;;1.75;;
44120;SDS011;29783;52.504;13.478;2022-10-16T05:09:03;4.65;;;1.60;;
44120;SDS011;29783;52.504;13.478;2022-10-16T05:11:30;2.75;;;1.70;;
44120;SDS011;29783;52.504;13.478;2022-10-16T05:13:56;7.38;;;1.90;;
44120;SDS011;29783;52.504;13.478;2022-10-16T05:16:22;2.28;;;1.65;;
44120;SDS011;29783;52.504;13.478;2022-10-16T05:18:48;9.10;;;1.67;;
44120;SDS011;29783;52.504;13.478;2022-10-16T05:21:13;3.17;;;1.60;;
44120;SDS011;29783;52.504;13.478;2022-10-16T05:23:39;5.93;;;1.60;;
44120;SDS011;29783;52.504;13.478;2022-10-16T05:26:05;2.13;;;1.45;;
44120;SDS011;29783;52.504;13.478;2022-10-16T05:28:31;2.08;;;1.88;;
44120;SDS011;29783;52.504;13.478;2022-10-16T05:30:56;2.63;;;2.08;;
44120;SDS011;29783;52.504;13.478;2022-10-16T05:33:24;2.85;;;1.80;;
44120;SDS011;29783;52.504;13.478;2022-10-16T05:35:51;4.07;;;2.10;;
44120;SDS011;29783;52.504;13.478;2022-10-16T05:38:17;2.50;;;1.55;;
44120;SDS011;29783;52.504;13.478;2022-10-16T05:40:43;3.13;;;1.85;;
44120;SDS011;29783;52.504;13.478;2022-10-16T05:43:16;3.55;;;1.60;;
44120;SDS011;29783;52.504;13.478;2022-10-16T05:45:42;2.15;;;1.60;;
44120;SDS011;29783;52.504;13.478;2022-10-16T05:48:08;3.72;;;1.52;;
44120;SDS011;29783;52.504;13.478;2022-10-16T05:50:34;3.75;;;1.90;;
44120;SDS011;29783;52.504;13.478;2022-10-16T05:52:59;3.03;;;1.80;;
44120;SDS011;29783;52.504;13.478;2022-10-16T05:55:25;4.13;;;1.85;;
44120;SDS011;29783;52.504;13.478;2022-10-16T05:57:53;1.75;;;1.58;;
44120;SDS011;29783;52.504;13.478;2022-10-16T06:00:19;3.47;;;1.90;;
44120;SDS011;29783;52.504;13.478;2022-10-16T06:02:45;4.85;;;1.80;;
44120;SDS011;29783;52.504;13.478;2022-10-16T06:05:11;2.05;;;1.80;;
44120;SDS011;29783;52.504;13.478;2022-10-16T06:07:37;2.97;;;1.88;;
44120;SDS011;29783;52.504;13.478;2022-10-16T06:10:03;2.92;;;2.05;;
44120;SDS011;29783;52.504;13.478;2022-10-16T06:12:29;2.70;;;1.55;;
44120;SDS011;29783;52.504;13.478;2022-10-16T06:14:55;3.50;;;2.00;;
44120;SDS011;29783;52.504;13.478;2022-10-16T06:17:20;4.70;;;1.70;;
44120;SDS011;29783;52.504;13.478;2022-10-16T06:19:46;2.90;;;1.90;;
44120;SDS011;29783;52.504;13.478;2022-10-16T06:22:12;6.47;;;1.90;;
44120;SDS011;29783;52.504;13.478;2022-10-16T06:24:37;2.55;;;2.15;;
44120;SDS011;29783;52.504;13.478;2022-10-16T06:27:04;8.43;;;1.60;;
44120;SDS011;29783;52.504;13.478;2022-10-16T06:29:30;3.33;;;1.75;;
44120;SDS011;29783;52.504;13.478;2022-10-16T06:31:56;1.90;;;1.70;;
44120;SDS011;29783;52.504;13.478;2022-10-16T06:34:21;2.38;;;1.60;;
44120;SDS011;29783;52.504;13.478;2022-10-16T06:36:47;2.45;;;1.88;;
44120;SDS011;29783;52.504;13.478;2022-10-16T06:39:12;2.70;;;1.80;;
44120;SDS011;29783;52.504;13.478;2022-10-16T06:41:38;9.30;;;2.03;;
44120;SDS011;29783;52.504;13.478;2022-10-16T06:44:07;2.08;;;1.60;;
44120;SDS011;29783;52.504;13.478;2022-10-16T06:46:33;2.97;;;1.60;;
44120;SDS011;29783;52.504;13.478;2022-10-16T06:48:59;3.55;;;1.70;;
44120;SDS011;29783;52.504;13.478;2022-10-16T06:51:25;4.70;;;1.48;;
44120;SDS011;29783;52.504;13.478;2022-10-16T06:53:51;1.83;;;1.33;;
44120;SDS011;29783;52.504;13.478;2022-10-16T06:56:22;1.90;;;1.45;;
44120;SDS011;29783;52.504;13.478;2022-10-16T06:58:49;2.78;;;1.50;;
44120;SDS011;29783;52.504;13.478;2022-10-16T07:01:16;1.80;;;1.35;;
44120;SDS011;29783;52.504;13.478;2022-10-16T07:03:44;5.00;;;1.30;;
44120;SDS011;29783;52.504;13.478;2022-10-16T07:06:11;1.60;;;1.38;;
44120;SDS011;29783;52.504;13.478;2022-10-16T07:08:54;2.28;;;1.48;;
44120;SDS011;29783;52.504;13.478;2022-10-16T07:11:21;2.90;;;1.35;;
44120;SDS011;29783;52.504;13.478;2022-10-16T07:13:48;1.77;;;1.48;;
44120;SDS011;29783;52.504;13.478;2022-10-16T07:16:15;3.35;;;1.20;;
44120;SDS011;29783;52.504;13.478;2022-10-16T07:18:43;1.20;;;1.10;;
44120;SDS011;29783;52.504;13.478;2022-10-16T07:21:15;6.07;;;1.40;;
44120;SDS011;29783;52.504;13.478;2022-10-16T07:23:42;2.83;;;1.20;;
44120;SDS011;29783;52.504;13.478;2022-10-16T07:26:09;1.02;;;0.90;;
44120;SDS011;29783;52.504;13.478;2022-10-16T07:28:35;1.50;;;1.00;;
44120;SDS011;29783;52.504;13.478;2022-10-16T07:31:02;2.25;;;1.20;;
44120;SDS011;29783;52.504;13.478;2022-10-16T07:33:33;4.03;;;1.17;;
44120;SDS011;29783;52.504;13.478;2022-10-16T07:35:59;1.98;;;0.90;;
44120;SDS011;29783;52.504;13.478;2022-10-16T07:38:24;1.42;;;0.90;;
44120;SDS011;29783;52.504;13.478;2022-10-16T07:41:01;1.13;;;1.00;;
44120;SDS011;29783;52.504;13.478;2022-10-16T07:43:29;5.95;;;1.30;;
44120;SDS011;29783;52.504;13.478;2022-10-16T07:45:55;8.30;;;1.00;;
44120;SDS011;29783;52.504;13.478;2022-10-16T07:48:22;6.68;;;1.23;;
44120;SDS011;29783;52.504;13.478;2022-10-16T07:50:49;2.83;;;1.00;;
44120;SDS011;29783;52.504;13.478;2022-10-16T07:53:15;3.63;;;0.80;;
44120;SDS011;29783;52.504;13.478;2022-10-16T07:55:41;5.25;;;1.00;;
44120;SDS011;29783;52.504;13.478;2022-10-16T07:58:09;1.33;;;0.90;;
44120;SDS011;29783;52.504;13.478;2022-10-16T08:00:36;2.65;;;1.10;;
44120;SDS011;29783;52.504;13.478;2022-10-16T08:03:05;1.13;;;0.85;;
44120;SDS011;29783;52.504;13.478;2022-10-16T08:05:31;1.17;;;0.70;;
44120;SDS011;29783;52.504;13.478;2022-10-16T08:08:01;1.92;;;0.90;;
44120;SDS011;29783;52.504;13.478;2022-10-16T08:10:27;6.07;;;0.75;;
44120;SDS011;29783;52.504;13.478;2022-10-16T08:12:57;4.20;;;0.95;;
44120;SDS011;29783;52.504;13.478;2022-10-16T08:15:23;5.32;;;0.80;;
44120;SDS011;29783;52.504;13.478;2022-10-16T08:18:03;1.73;;;0.60;;
44120;SDS011;29783;52.504;13.478;2022-10-16T08:20:33;2.03;;;0.80;;
44120;SDS011;29783;52.504;13.478;2022-10-16T08:22:59;4.43;;;0.82;;
44120;SDS011;29783;52.504;13.478;2022-10-16T08:25:25;3.50;;;0.80;;
44120;SDS011;29783;52.504;13.478;2022-10-16T08:27:51;1.30;;;0.80;;
44120;SDS011;29783;52.504;13.478;2022-10-16T08:30:18;1.77;;;0.60;;
44120;SDS011;29783;52.504;13.478;2022-10-16T08:32:45;1.83;;;0.60;;
44120;SDS011;29783;52.504;13.478;2022-10-16T08:35:11;6.30;;;0.77;;
44120;SDS011;29783;52.504;13.478;2022-10-16T08:37:37;4.40;;;0.75;;
44120;SDS011;29783;52.504;13.478;2022-10-16T08:40:04;1.00;;;0.50;;
44120;SDS011;29783;52.504;13.478;2022-10-16T08:42:35;2.17;;;0.70;;
44120;SDS011;29783;52.504;13.478;2022-10-16T08:45:26;3.53;;;0.70;;
44120;SDS011;29783;52.504;13.478;2022-10-16T08:50:40;1.95;;;0.95;;
44120;SDS011;29783;52.504;13.478;2022-10-16T08:53:06;1.05;;;0.85;;
44120;SDS011;29783;52.504;13.478;2022-10-16T08:55:46;1.42;;;0.65;;
44120;SDS011;29783;52.504;13.478;2022-10-16T08:58:19;1.08;;;0.70;;
44120;SDS011;29783;52.504;13.478;2022-10-16T09:00:50;2.35;;;0.70;;
44120;SDS011;29783;52.504;13.478;2022-10-16T09:09:09;1.88;;;0.90;;
44120;SDS011;29783;52.504;13.478;2022-10-16T09:14:51;1.98;;;0.90;;
44120;SDS011;29783;52.504;13.478;2022-10-16T09:20:27;2.70;;;0.85;;
44120;SDS011;29783;52.504;13.478;2022-10-16T09:25:33;0.50;;;0.50;;
44120;SDS011;29783;52.504;13.478;2022-10-16T09:28:00;2.50;;;0.80;;
44120;SDS011;29783;52.504;13.478;2022-10-16T09:30:26;1.52;;;0.65;;
44120;SDS011;29783;52.504;13.478;2022-10-16T09:32:57;3.00;;;0.90;;
44120;SDS011;29783;52.504;13.478;2022-10-16T09:35:43;3.05;;;0.75;;
44120;SDS011;29783;52.504;13.478;2022-10-16T09:38:31;1.77;;;0.88;;
44120;SDS011;29783;52.504;13.478;2022-10-16T09:41:01;2.42;;;0.80;;
44120;SDS011;29783;52.504;13.478;2022-10-16T09:43:41;1.17;;;0.57;;
44120;SDS011;29783;52.504;13.478;2022-10-16T09:46:21;1.70;;;0.63;;
44120;SDS011;29783;52.504;13.478;2022-10-16T09:48:50;2.10;;;0.50;;
44120;SDS011;29783;52.504;13.478;2022-10-16T09:51:22;1.10;;;0.70;;
44120;SDS011;29783;52.504;13.478;2022-10-16T09:54:01;2.22;;;0.70;;
44120;SDS011;29783;52.504;13.478;2022-10-16T09:56:33;3.50;;;0.80;;
44120;SDS011;29783;52.504;13.478;2022-10-16T09:59:22;2.67;;;0.90;;
44120;SDS011;29783;52.504;13.478;2022-10-16T10:01:54;2.67;;;0.50;;
44120;SDS011;29783;52.504;13.478;2022-10-16T10:04:21;2.63;;;0.80;;
44120;SDS011;29783;52.504;13.478;2022-10-16T10:09:26;2.70;;;1.00;;
44120;SDS011;29783;52.504;13.478;2022-10-16T10:12:25;1.73;;;0.60;;
44120;SDS011;29783;52.504;13.478;2022-10-16T10:14:54;5.20;;;0.73;;
44120;SDS011;29783;52.504;13.478;2022-10-16T10:17:22;2.38;;;0.75;;
44120;SDS011;29783;52.504;13.478;2022-10-16T10:19:50;6.13;;;0.70;;
44120;SDS011;29783;52.504;13.478;2022-10-16T10:22:31;4.13;;;1.00;;
44120;SDS011;29783;52.504;13.478;2022-10-16T10:30:47;1.00;;;0.60;;
44120;SDS011;29783;52.504;13.478;2022-10-16T11:06:11;2.80;;;0.50;;
44120;SDS011;29783;52.504;13.478;2022-10-16T11:11:51;1.80;;;0.60;;
44120;SDS011;29783;52.504;13.478;2022-10-16T11:14:50;3.97;;;1.13;;
44120;SDS011;29783;52.504;13.478;2022-10-16T11:17:25;3.13;;;0.70;;
44120;SDS011;29783;52.504;13.478;2022-10-16T11:20:05;1.05;;;0.43;;
44120;SDS011;29783;52.504;13.478;2022-10-16T11:22:53;5.40;;;0.55;;
44120;SDS011;29783;52.504;13.478;2022-10-16T11:25:27;1.25;;;0.55;;
44120;SDS011;29783;52.504;13.478;2022-10-16T11:28:17;2.05;;;0.95;;
44120;SDS011;29783;52.504;13.478;2022-10-16T11:30:57;1.95;;;0.60;;
44120;SDS011;29783;52.504;13.478;2022-10-16T11:33:52;1.77;;;0.52;;
44120;SDS011;29783;52.504;13.478;2022-10-16T11:38:54;2.63;;;0.70;;
44120;SDS011;29783;52.504;13.478;2022-10-16T11:41:44;5.28;;;0.40;;
44120;SDS011;29783;52.504;13.478;2022-10-16T11:46:51;0.73;;;0.45;;
44120;SDS011;29783;52.504;13.478;2022-10-16T11:49:26;1.80;;;0.50;;
44120;SDS011;29783;52.504;13.478;2022-10-16T11:57:26;3.05;;;0.50;;
44120;SDS011;29783;52.504;13.478;2022-10-16T12:00:08;1.45;;;0.52;;
44120;SDS011;29783;52.504;13.478;2022-10-16T12:05:58;2.50;;;0.60;;
44120;SDS011;29783;52.504;13.478;2022-10-16T12:08:25;1.08;;;0.40;;
44120;SDS011;29783;52.504;13.478;2022-10-16T12:10:52;0.77;;;0.40;;
44120;SDS011;29783;52.504;13.478;2022-10-16T12:13:36;1.52;;;0.50;;
44120;SDS011;29783;52.504;13.478;2022-10-16T12:18:38;1.95;;;0.32;;
44120;SDS011;29783;52.504;13.478;2022-10-16T12:21:09;2.17;;;0.52;;
44120;SDS011;29783;52.504;13.478;2022-10-16T12:23:45;3.00;;;0.60;;
44120;SDS011;29783;52.504;13.478;2022-10-16T12:26:13;1.73;;;0.40;;
44120;SDS011;29783;52.504;13.478;2022-10-16T12:28:39;0.80;;;0.50;;
44120;SDS011;29783;52.504;13.478;2022-10-16T12:31:06;3.67;;;0.70;;
44120;SDS011;29783;52.504;13.478;2022-10-16T12:33:37;0.85;;;0.50;;
44120;SDS011;29783;52.504;13.478;2022-10-16T12:36:15;3.28;;;0.60;;
44120;SDS011;29783;52.504;13.478;2022-10-16T12:38:52;4.60;;;0.40;;
44120;SDS011;29783;52.504;13.478;2022-10-16T12:41:26;1.75;;;0.20;;
44120;SDS011;29783;52.504;13.478;2022-10-16T12:44:04;5.78;;;0.47;;
44120;SDS011;29783;52.504;13.478;2022-10-16T12:46:46;0.70;;;0.50;;
44120;SDS011;29783;52.504;13.478;2022-10-16T12:51:38;1.55;;;0.60;;
44120;SDS011;29783;52.504;13.478;2022-10-16T12:54:22;0.40;;;0.30;;
44120;SDS011;29783;52.504;13.478;2022-10-16T13:14:25;3.83;;;0.45;;
44120;SDS011;29783;52.504;13.478;2022-10-16T13:28:02;1.35;;;0.50;;
44120;SDS011;29783;52.504;13.478;2022-10-16T13:30:44;1.40;;;0.30;;
44120;SDS011;29783;52.504;13.478;2022-10-16T13:33:18;4.35;;;0.75;;
44120;SDS011;29783;52.504;13.478;2022-10-16T13:35:55;3.33;;;0.40;;
44120;SDS011;29783;52.504;13.478;2022-10-16T13:38:23;8.27;;;0.80;;
44120;SDS011;29783;52.504;13.478;2022-10-16T13:41:00;4.55;;;0.60;;
44120;SDS011;29783;52.504;13.478;2022-10-16T13:43:29;1.70;;;0.60;;
44120;SDS011;29783;52.504;13.478;2022-10-16T13:46:00;1.92;;;0.57;;
44120;SDS011;29783;52.504;13.478;2022-10-16T13:48:31;2.97;;;0.63;;
44120;SDS011;29783;52.504;13.478;2022-10-16T13:51:00;4.13;;;0.50;;
44120;SDS011;29783;52.504;13.478;2022-10-16T13:53:34;4.60;;;0.40;;
44120;SDS011;29783;52.504;13.478;2022-10-16T13:56:01;5.47;;;0.40;;
44120;SDS011;29783;52.504;13.478;2022-10-16T13:58:28;1.92;;;0.40;;
44120;SDS011;29783;52.504;13.478;2022-10-16T14:00:56;0.95;;;0.40;;
44120;SDS011;29783;52.504;13.478;2022-10-16T14:03:23;1.67;;;0.60;;
44120;SDS011;29783;52.504;13.478;2022-10-16T14:05:55;3.83;;;0.43;;
44120;SDS011;29783;52.504;13.478;2022-10-16T14:08:23;3.15;;;0.40;;
44120;SDS011;29783;52.504;13.478;2022-10-16T14:10:53;3.08;;;0.52;;
44120;SDS011;29783;52.504;13.478;2022-10-16T14:13:31;4.88;;;0.30;;
44120;SDS011;29783;52.504;13.478;2022-10-16T14:16:08;1.15;;;0.40;;
44120;SDS011;29783;52.504;13.478;2022-10-16T14:18:41;2.47;;;0.30;;
44120;SDS011;29783;52.504;13.478;2022-10-16T14:21:13;1.33;;;0.47;;
44120;SDS011;29783;52.504;13.478;2022-10-16T14:23:41;8.88;;;0.60;;
44120;SDS011;29783;52.504;13.478;2022-10-16T14:28:40;2.08;;;0.47;;
44120;SDS011;29783;52.504;13.478;2022-10-16T14:33:58;5.95;;;0.40;;
44120;SDS011;29783;52.504;13.478;2022-10-16T14:36:25;1.42;;;0.30;;
44120;SDS011;29783;52.504;13.478;2022-10-16T14:41:29;2.67;;;0.60;;
44120;SDS011;29783;52.504;13.478;2022-10-16T14:44:03;0.43;;;0.43;;
44120;SDS011;29783;52.504;13.478;2022-10-16T14:46:48;0.75;;;0.35;;
44120;SDS011;29783;52.504;13.478;2022-10-16T14:49:15;0.80;;;0.40;;
44120;SDS011;29783;52.504;13.478;2022-10-16T14:51:45;2.60;;;0.40;;
44120;SDS011;29783;52.504;13.478;2022-10-16T14:54:17;1.30;;;0.35;;
44120;SDS011;29783;52.504;13.478;2022-10-16T14:59:33;0.93;;;0.40;;
44120;SDS011;29783;52.504;13.478;2022-10-16T15:02:06;3.95;;;0.52;;
44120;SDS011;29783;52.504;13.478;2022-10-16T15:04:45;2.83;;;1.13;;
44120;SDS011;29783;52.504;13.478;2022-10-16T15:07:11;5.50;;;0.70;;
44120;SDS011;29783;52.504;13.478;2022-10-16T15:09:46;3.42;;;0.63;;
44120;SDS011;29783;52.504;13.478;2022-10-16T15:12:12;3.13;;;1.15;;
44120;SDS011;29783;52.504;13.478;2022-10-16T15:14:37;2.83;;;0.60;;
44120;SDS011;29783;52.504;13.478;2022-10-16T15:17:03;5.80;;;0.93;;
44120;SDS011;29783;52.504;13.478;2022-10-16T15:19:29;1.17;;;0.73;;
44120;SDS011;29783;52.504;13.478;2022-10-16T15:21:55;2.05;;;0.52;;
44120;SDS011;29783;52.504;13.478;2022-10-16T15:24:21;4.45;;;0.40;;
44120;SDS011;29783;52.504;13.478;2022-10-16T15:26:46;0.98;;;0.40;;
44120;SDS011;29783;52.504;13.478;2022-10-16T15:29:12;0.73;;;0.30;;
44120;SDS011;29783;52.504;13.478;2022-10-16T15:31:39;3.97;;;0.52;;
44120;SDS011;29783;52.504;13.478;2022-10-16T15:34:08;8.07;;;0.80;;
44120;SDS011;29783;52.504;13.478;2022-10-16T15:36:35;3.95;;;0.80;;
44120;SDS011;29783;52.504;13.478;2022-10-16T15:39:03;0.95;;;0.82;;
44120;SDS011;29783;52.504;13.478;2022-10-16T15:41:29;12.35;;;1.50;;
44120;SDS011;29783;52.504;13.478;2022-10-16T15:43:55;6.57;;;1.92;;
44120;SDS011;29783;52.504;13.478;2022-10-16T15:46:21;8.30;;;1.55;;
44120;SDS011;29783;52.504;13.478;2022-10-16T15:48:50;2.47;;;0.90;;
44120;SDS011;29783;52.504;13.478;2022-10-16T15:51:20;3.40;;;1.00;;
44120;SDS011;29783;52.504;13.478;2022-10-16T15:53:46;2.10;;;1.00;;
44120;SDS011;29783;52.504;13.478;2022-10-16T15:56:12;1.15;;;0.88;;
44120;SDS011;29783;52.504;13.478;2022-10-16T15:58:38;4.15;;;1.67;;
44120;SDS011;29783;52.504;13.478;2022-10-16T16:01:04;6.25;;;1.25;;
44120;SDS011;29783;52.504;13.478;2022-10-16T16:03:31;1.90;;;1.13;;
44120;SDS011;29783;52.504;13.478;2022-10-16T16:05:57;2.22;;;1.30;;
44120;SDS011;29783;52.504;13.478;2022-10-16T16:08:23;5.00;;;1.70;;
44120;SDS011;29783;52.504;13.478;2022-10-16T16:11:01;2.05;;;1.38;;
44120;SDS011;29783;52.504;13.478;2022-10-16T16:13:31;5.38;;;1.33;;
44120;SDS011;29783;52.504;13.478;2022-10-16T16:15:57;8.43;;;1.95;;
44120;SDS011;29783;52.504;13.478;2022-10-16T16:18:23;4.78;;;2.08;;
44120;SDS011;29783;52.504;13.478;2022-10-16T16:20:49;5.80;;;1.80;;
44120;SDS011;29783;52.504;13.478;2022-10-16T16:23:18;6.35;;;2.35;;
44120;SDS011;29783;52.504;13.478;2022-10-16T16:25:44;6.95;;;1.70;;
44120;SDS011;29783;52.504;13.478;2022-10-16T16:28:10;3.97;;;2.03;;
44120;SDS011;29783;52.504;13.478;2022-10-16T16:30:39;5.78;;;2.35;;
44120;SDS011;29783;52.504;13.478;2022-10-16T16:33:05;3.13;;;2.28;;
44120;SDS011;29783;52.504;13.478;2022-10-16T16:35:31;2.38;;;1.88;;
44120;SDS011;29783;52.504;13.478;2022-10-16T16:37:56;6.93;;;2.13;;
44120;SDS011;29783;52.504;13.478;2022-10-16T16:40:22;10.02;;;2.05;;
44120;SDS011;29783;52.504;13.478;2022-10-16T16:42:48;10.25;;;2.33;;
44120;SDS011;29783;52.504;13.478;2022-10-16T16:45:14;20.52;;;11.82;;
44120;SDS011;29783;52.504;13.478;2022-10-16T16:47:40;16.80;;;8.52;;
44120;SDS011;29783;52.504;13.478;2022-10-16T16:50:06;14.02;;;6.20;;
44120;SDS011;29783;52.504;13.478;2022-10-16T16:52:32;6.50;;;3.65;;
44120;SDS011;29783;52.504;13.478;2022-10-16T16:54:59;6.47;;;3.30;;